• Join FlightAware (Why Join?)
  • Login
  • US Flag 
12:44AM EST


 

Airport Tracker/Info


-or-


 

Live Flight TrackerFlight Track Log ✈ THY2460 ✈ 29-Jun-2013 ✈ LTBA / IST - LTAF / ADA

Flight Track Log - Related Links

Times and Time Zones

All times are in EDT time to prevent confusion due to time zone crossing. See the THY2460 flight status page for this flight to view local times or setup timezone preferences in your user account.

Time Position Orientation Groundspeed Altitude Reporting Facility
EDT Latitude Longitude Course Direction KTS MPH feet Rate Location/Type
05:32AM 39.4067 31.5182 126° Southeast  Level Estimated
05:33AM 39.3370 31.6327 128° Southeast  Level Estimated
05:34AM 39.2673 31.7469 128° Southeast  Level Estimated
05:35AM 39.1974 31.8610 128° Southeast  Level Estimated
05:36AM 39.1274 31.9747 128° Southeast  Level Estimated
05:37AM 39.0573 32.0883 128° Southeast  Level Estimated
05:38AM 38.9870 32.2016 129° Southeast  Level Estimated
05:39AM 38.9167 32.3147 129° Southeast  Level Estimated
05:40AM 38.8463 32.4276 129° Southeast  Level Estimated
05:41AM 38.7757 32.5403 129° Southeast  Level Estimated
05:42AM 38.7051 32.6527 129° Southeast  Level Estimated
05:43AM 38.6343 32.7649 129° Southeast  Level Estimated
05:44AM 38.5635 32.8769 129° Southeast  Level Estimated
05:45AM 38.4925 32.9887 129° Southeast  Level Estimated
05:46AM 38.4214 33.1002 129° Southeast  Level Estimated
05:47AM 38.3502 33.2116 129° Southeast  Level Estimated
05:48AM 38.2789 33.3227 129° Southeast  Level Estimated
05:49AM 38.2076 33.4336 129° Southeast  Level Estimated
05:50AM 38.1361 33.5442 129° Southeast  Level Estimated
05:51AM 38.0644 33.6547 129° Southeast  Level Estimated
05:52AM 37.9927 33.7649 130° Southeast  Level Estimated
05:53AM 37.9209 33.8750 130° Southeast  Level Estimated
05:54AM 37.8490 33.9848 130° Southeast  Level Estimated
05:55AM 37.7770 34.0944 130° Southeast  Level Estimated
05:56AM 37.7049 34.2038 130° Southeast  Level Estimated
05:57AM 37.6327 34.3129 130° Southeast  Level Estimated
05:58AM 37.5604 34.4219 130° Southeast  Level Estimated
05:59AM 37.4880 34.5307 130° Southeast  Level Estimated
06:00AM 37.4155 34.6392 130° Southeast  Level Estimated
06:01AM 37.3429 34.7475 130° Southeast  Level Estimated
06:02AM 37.2701 34.8556 130° Southeast  Level Estimated
06:03AM 37.1973 34.9636 130° Southeast  Level Estimated
06:04AM 37.1244 35.0713 130° Southeast  Level Estimated
06:05AM 37.0514 35.1787 130° Southeast  Level Estimated
06:06AM 36.9822 35.2804 130° Southeast  Level Estimated
06:07AM 36.9822 35.2804 202° Southwest  Level Estimated
06:08AM 36.9822 35.2804 202° Southwest  Level Estimated
06:09AM 36.9822 35.2804 202° Southwest  Level Estimated
06:10AM 36.9822 35.2804 202° Southwest  Level Estimated
06:11AM 36.9822 35.2804 202° Southwest  Level Estimated
06:12AM 36.9822 35.2804 202° Southwest  Level Estimated
06:13AM 36.9822 35.2804 202° Southwest  Level Estimated
06:14AM 36.9822 35.2804 202° Southwest  Level Estimated
06:15AM 36.9822 35.2804 202° Southwest  Level Estimated
06:16AM 36.9822 35.2804 202° Southwest  Level Estimated
06:17AM 36.9822 35.2804 202° Southwest  Level Estimated
06:18AM 36.9822 35.2804 202° Southwest  Level Estimated
06:19AM 36.9822 35.2804 202° Southwest  Level Estimated
06:20AM 36.9822 35.2804 202° Southwest  Level Estimated
06:21AM 36.9822 35.2804 202° Southwest  Level Estimated
06:22AM 36.9822 35.2804 202° Southwest  Level Estimated